createdAt,value
2023-12-01T00:00:37.312Z,32.90
2023-12-01T00:03:25.274Z,30.80
2023-12-01T00:05:53.137Z,32.20
2023-12-01T00:08:20.906Z,30.80
2023-12-01T00:10:48.692Z,33.70
2023-12-01T00:13:16.461Z,30.60
2023-12-01T00:15:44.297Z,28.70
2023-12-01T00:18:12.182Z,31.90
2023-12-01T00:20:40.044Z,32.70
2023-12-01T00:23:07.927Z,32.30
2023-12-01T00:25:35.665Z,34.50
2023-12-01T00:28:03.879Z,35.30
2023-12-01T00:30:33.638Z,32.10
2023-12-01T00:33:04.609Z,28.70
2023-12-01T00:35:32.515Z,31.10
2023-12-01T00:38:00.340Z,31.60
2023-12-01T00:40:28.161Z,30.30
2023-12-01T00:42:56.076Z,31.90
2023-12-01T00:45:23.949Z,34.70
2023-12-01T00:47:51.803Z,31.30
2023-12-01T00:50:20.596Z,32.50
2023-12-01T00:52:48.434Z,35.90
2023-12-01T00:55:16.305Z,33.00
2023-12-01T00:57:44.149Z,32.30
2023-12-01T01:00:12.506Z,31.90
2023-12-01T01:02:40.643Z,32.60
2023-12-01T01:05:09.409Z,31.80
2023-12-01T01:07:37.303Z,33.00
2023-12-01T01:10:05.592Z,32.90
2023-12-01T01:12:45.543Z,32.20
2023-12-01T01:15:13.460Z,30.00
2023-12-01T01:17:41.352Z,33.90
2023-12-01T01:20:11.150Z,30.50
2023-12-01T01:22:39.394Z,32.60
2023-12-01T01:25:07.911Z,31.70
2023-12-01T01:27:35.709Z,34.00
2023-12-01T01:30:03.792Z,32.40
2023-12-01T01:32:31.579Z,32.20
2023-12-01T01:34:59.251Z,33.30
2023-12-01T01:37:27.030Z,29.30
2023-12-01T01:39:54.783Z,27.20
2023-12-01T01:42:22.583Z,32.10
2023-12-01T01:44:50.469Z,32.90
2023-12-01T01:47:18.251Z,32.10
2023-12-01T01:49:46.876Z,31.60
2023-12-01T01:52:15.210Z,31.40
2023-12-01T01:54:43.458Z,29.30
2023-12-01T01:57:11.292Z,32.60
2023-12-01T01:59:39.050Z,30.90
2023-12-01T02:02:06.963Z,29.80
2023-12-01T02:04:34.754Z,27.90
2023-12-01T02:07:02.811Z,28.00
2023-12-01T02:09:36.698Z,30.50
2023-12-01T02:12:04.839Z,29.30
2023-12-01T02:14:32.493Z,30.60
2023-12-01T02:17:00.319Z,30.10
2023-12-01T02:19:28.063Z,29.60
2023-12-01T02:21:56.526Z,28.90
2023-12-01T02:24:24.316Z,29.20
2023-12-01T02:26:52.040Z,29.70
2023-12-01T02:29:19.763Z,32.00
2023-12-01T02:31:47.546Z,30.50
2023-12-01T02:34:15.357Z,29.30
2023-12-01T02:36:43.162Z,29.20
2023-12-01T02:39:14.569Z,30.80
2023-12-01T02:41:42.581Z,29.10
2023-12-01T02:44:10.420Z,28.90
2023-12-01T02:46:38.301Z,27.10
2023-12-01T02:49:06.183Z,28.40
2023-12-01T02:51:34.009Z,27.50
2023-12-01T02:54:01.943Z,26.80
2023-12-01T02:56:29.671Z,27.60
2023-12-01T02:58:57.365Z,26.50
2023-12-01T03:01:25.201Z,26.90
2023-12-01T03:03:53.064Z,27.60
2023-12-01T03:06:20.918Z,27.30
2023-12-01T03:08:48.790Z,29.20
2023-12-01T03:11:16.481Z,26.90
2023-12-01T03:13:44.172Z,27.70
2023-12-01T03:16:12.361Z,27.80
2023-12-01T03:18:40.983Z,27.20
2023-12-01T03:21:14.555Z,28.70
2023-12-01T03:23:43.777Z,28.30
2023-12-01T03:26:11.629Z,28.50
2023-12-01T03:28:39.326Z,29.30
2023-12-01T03:31:07.324Z,26.00
2023-12-01T03:33:35.145Z,25.10
2023-12-01T03:36:03.122Z,26.90
2023-12-01T03:38:30.930Z,23.70
2023-12-01T03:41:01.291Z,24.50
2023-12-01T03:43:29.074Z,25.20
2023-12-01T03:45:56.807Z,25.80
2023-12-01T03:48:24.544Z,26.40
2023-12-01T03:50:52.659Z,26.30
2023-12-01T03:53:20.318Z,24.00
2023-12-01T03:55:47.990Z,25.10
2023-12-01T03:58:15.711Z,23.70
2023-12-01T04:00:43.499Z,25.70
2023-12-01T04:03:11.464Z,26.10
2023-12-01T04:05:39.214Z,26.00
2023-12-01T04:08:06.924Z,23.50
2023-12-01T04:10:34.819Z,25.80
2023-12-01T04:13:08.663Z,23.60
2023-12-01T04:15:37.824Z,24.80
2023-12-01T04:18:10.098Z,26.40
2023-12-01T04:20:40.129Z,25.50
2023-12-01T04:23:11.575Z,28.00
2023-12-01T04:25:40.807Z,27.20
2023-12-01T04:28:08.634Z,29.20
2023-12-01T04:30:36.596Z,27.60
2023-12-01T04:33:04.641Z,21.90
2023-12-01T04:35:37.272Z,20.90
2023-12-01T04:38:05.230Z,25.20
2023-12-01T04:40:33.704Z,25.70
2023-12-01T04:43:02.490Z,26.80
2023-12-01T04:45:34.400Z,24.50
2023-12-01T04:48:02.719Z,23.10
2023-12-01T04:50:32.242Z,30.60
2023-12-01T04:53:01.986Z,29.60
2023-12-01T04:55:30.965Z,27.00
2023-12-01T04:58:01.825Z,27.70
2023-12-01T05:00:29.687Z,26.30
2023-12-01T05:03:08.226Z,25.80
2023-12-01T05:05:38.589Z,27.10
2023-12-01T05:08:09.238Z,24.90
2023-12-01T05:10:38.718Z,28.70
2023-12-01T05:13:07.945Z,24.80
2023-12-01T05:15:37.532Z,27.80
2023-12-01T05:18:07.355Z,24.30
2023-12-01T05:20:35.321Z,28.00
2023-12-01T05:23:07.184Z,27.90
2023-12-01T05:28:04.979Z,22.60
2023-12-01T05:30:34.585Z,29.80
2023-12-01T05:33:05.736Z,28.30
2023-12-01T05:35:38.444Z,24.70
2023-12-01T05:38:06.972Z,28.80
2023-12-01T05:40:37.366Z,30.60
2023-12-01T05:43:07.436Z,35.80
2023-12-01T05:45:38.913Z,33.50
2023-12-01T05:48:10.628Z,28.50
2023-12-01T07:01:52.926Z,25.40
2023-12-01T07:04:20.776Z,21.80
2023-12-01T07:06:48.740Z,28.60
2023-12-01T07:09:18.326Z,31.10
2023-12-01T07:11:46.963Z,29.90
2023-12-01T07:14:14.796Z,23.10
2023-12-01T07:16:43.411Z,26.60
2023-12-01T07:19:12.105Z,26.80
2023-12-01T07:21:39.884Z,24.50
2023-12-01T07:24:10.306Z,26.30
2023-12-01T07:26:38.141Z,23.70
2023-12-01T07:29:06.014Z,27.50
2023-12-01T07:31:38.980Z,27.70
2023-12-01T07:34:06.764Z,23.50
2023-12-01T07:36:40.625Z,21.90
2023-12-01T07:39:10.610Z,23.30
2023-12-01T07:41:39.243Z,23.60
2023-12-01T07:44:07.066Z,21.10
2023-12-01T07:46:35.036Z,19.70
2023-12-01T07:49:09.097Z,20.90
2023-12-01T07:51:37.678Z,20.80
2023-12-01T07:54:05.476Z,23.20
2023-12-01T07:56:33.287Z,20.30
2023-12-01T07:59:01.088Z,17.70
2023-12-01T08:01:28.832Z,13.50
2023-12-01T08:03:56.674Z,18.60
2023-12-01T08:06:24.501Z,20.30
2023-12-01T08:08:52.244Z,19.30
2023-12-01T08:11:20.356Z,16.10
2023-12-01T08:13:48.404Z,15.10
2023-12-01T08:16:16.297Z,17.80
2023-12-01T08:18:44.075Z,13.60
2023-12-01T08:21:12.672Z,17.60
2023-12-01T08:23:41.661Z,19.40
2023-12-01T08:26:12.703Z,17.90
2023-12-01T08:28:40.400Z,20.50
2023-12-01T08:31:08.512Z,18.20
2023-12-01T08:33:36.906Z,18.90
2023-12-01T08:36:05.087Z,17.70
2023-12-01T08:38:33.153Z,17.60
2023-12-01T08:41:00.936Z,16.40
2023-12-01T08:43:31.101Z,16.80
2023-12-01T08:45:59.496Z,18.50
2023-12-01T08:48:27.330Z,16.90
2023-12-01T08:50:55.324Z,16.20
2023-12-01T08:53:25.837Z,14.70
2023-12-01T08:55:54.294Z,15.50
2023-12-01T08:58:23.466Z,16.10
2023-12-01T09:00:51.199Z,14.80
2023-12-01T09:03:19.031Z,14.60
2023-12-01T09:05:46.916Z,15.30
2023-12-01T09:08:15.503Z,14.40
2023-12-01T09:10:43.215Z,13.30
2023-12-01T09:13:11.145Z,16.30
2023-12-01T09:15:38.888Z,14.20
2023-12-01T09:18:06.800Z,19.70
2023-12-01T09:20:34.586Z,15.60
2023-12-01T09:23:02.360Z,16.50
2023-12-01T09:25:30.145Z,14.40
2023-12-01T09:27:58.372Z,17.50
2023-12-01T09:30:26.142Z,15.00
2023-12-01T09:32:54.054Z,17.40
2023-12-01T09:35:54.101Z,14.00
2023-12-01T09:38:12.394Z,13.50
2023-12-01T09:40:44.897Z,16.80
2023-12-01T09:43:15.151Z,17.50
2023-12-01T09:45:43.964Z,16.50
2023-12-01T09:48:15.010Z,16.60
2023-12-01T10:06:00.820Z,21.90
2023-12-01T10:08:28.793Z,16.70
2023-12-01T10:10:56.767Z,16.00
2023-12-01T10:13:24.663Z,16.90
2023-12-01T10:15:52.936Z,13.40
2023-12-01T10:18:23.263Z,16.80
2023-12-01T10:20:59.435Z,14.70
2023-12-01T10:23:29.124Z,17.60
2023-12-01T10:25:58.425Z,14.00
2023-12-01T10:28:44.598Z,12.60
2023-12-01T10:31:16.550Z,14.50
2023-12-01T10:33:48.934Z,17.10
2023-12-01T10:36:20.317Z,15.60
2023-12-01T10:38:51.718Z,17.00
2023-12-01T10:41:23.912Z,16.00
2023-12-01T10:43:53.489Z,15.60
2023-12-01T10:46:25.402Z,17.00
2023-12-01T10:48:55.478Z,15.10
2023-12-01T10:51:24.343Z,17.90
2023-12-01T10:53:57.620Z,15.60
2023-12-01T10:56:33.109Z,17.60
2023-12-01T10:59:02.662Z,14.10
2023-12-01T11:01:30.989Z,15.50
2023-12-01T11:04:01.916Z,13.60
2023-12-01T11:06:42.339Z,12.50
2023-12-01T11:09:32.143Z,12.10
2023-12-01T11:12:13.550Z,12.70
2023-12-01T11:14:43.012Z,14.00
2023-12-01T11:17:11.260Z,15.00
2023-12-01T11:19:40.720Z,15.40
2023-12-01T11:22:38.564Z,15.00
2023-12-01T11:25:06.922Z,14.60
2023-12-01T11:27:35.709Z,15.40
2023-12-01T11:30:10.131Z,16.80
2023-12-01T11:32:43.132Z,12.40
2023-12-01T11:35:12.428Z,15.80
2023-12-01T11:38:01.479Z,14.00
2023-12-01T11:40:39.899Z,13.30
2023-12-01T11:43:17.356Z,11.50
2023-12-01T11:45:50.790Z,11.30
2023-12-01T11:48:19.423Z,12.40
2023-12-01T11:50:47.932Z,13.80
2023-12-01T11:57:05.783Z,14.40
2023-12-01T11:59:32.646Z,12.20
2023-12-01T12:01:59.306Z,13.40
2023-12-01T12:04:25.904Z,13.30
2023-12-01T12:06:53.055Z,12.40
2023-12-01T12:09:20.335Z,16.20
2023-12-01T12:11:55.166Z,14.40
2023-12-01T12:14:27.427Z,14.80
2023-12-01T12:16:54.521Z,13.80
2023-12-01T12:19:22.512Z,14.70
2023-12-01T12:21:50.029Z,13.30
2023-12-01T12:24:17.114Z,15.50
2023-12-01T12:26:55.814Z,15.60
2023-12-01T12:29:24.394Z,14.20
2023-12-01T12:31:52.416Z,17.60
2023-12-01T12:34:21.294Z,17.80
2023-12-01T12:36:51.123Z,20.30
2023-12-01T12:39:18.293Z,18.20
2023-12-01T12:41:59.683Z,15.90
2023-12-01T12:44:30.569Z,17.10
2023-12-01T12:47:05.355Z,15.90
2023-12-01T12:49:33.302Z,14.80
2023-12-01T12:52:01.838Z,14.30
2023-12-01T12:54:29.551Z,13.90
2023-12-01T12:56:56.634Z,15.20
2023-12-01T12:59:24.081Z,14.70
2023-12-01T13:01:51.764Z,10.10
2023-12-01T13:04:19.689Z,16.50
2023-12-01T13:06:49.349Z,16.80
2023-12-01T13:09:18.382Z,17.20
2023-12-01T13:11:45.702Z,17.00
2023-12-01T13:14:14.604Z,17.20
2023-12-01T13:16:51.937Z,19.60
2023-12-01T13:19:26.487Z,20.50
2023-12-01T13:21:55.989Z,21.10
2023-12-01T13:24:25.273Z,19.00
2023-12-01T13:26:52.509Z,23.90
2023-12-01T13:29:19.152Z,20.10
2023-12-01T13:31:46.296Z,18.30
2023-12-01T13:34:13.516Z,19.00
2023-12-01T13:36:40.096Z,21.10
2023-12-01T13:39:06.952Z,22.80
2023-12-01T13:41:33.798Z,16.00
2023-12-01T13:44:00.449Z,19.20
2023-12-01T13:46:27.685Z,16.10
2023-12-01T13:48:54.468Z,16.80
2023-12-01T13:51:21.577Z,17.30
2023-12-01T13:53:48.655Z,17.20
2023-12-01T13:56:15.280Z,18.20
2023-12-01T13:58:43.905Z,16.80
2023-12-01T14:01:12.244Z,19.20
2023-12-01T14:03:39.951Z,17.70
2023-12-01T14:06:08.052Z,20.90
2023-12-01T14:08:35.355Z,18.60
2023-12-01T14:11:03.062Z,18.20
2023-12-01T14:13:29.702Z,18.00
2023-12-01T14:15:56.447Z,17.00
2023-12-01T14:18:23.277Z,20.90
2023-12-01T14:20:50.254Z,20.50
2023-12-01T14:23:16.779Z,21.50
2023-12-01T14:25:43.374Z,18.10
2023-12-01T14:28:09.938Z,19.40
2023-12-01T14:30:36.660Z,17.30
2023-12-01T14:33:03.336Z,18.60
2023-12-01T14:35:29.991Z,20.40
2023-12-01T14:37:56.530Z,18.40
2023-12-01T14:40:23.709Z,19.50
2023-12-01T14:42:50.726Z,18.50
2023-12-01T14:45:17.439Z,20.10
2023-12-01T14:47:46.460Z,24.70
2023-12-01T14:50:14.189Z,21.80
2023-12-01T14:52:40.680Z,21.40
2023-12-01T14:55:07.627Z,21.30
2023-12-01T14:57:34.284Z,21.80
2023-12-01T15:00:01.165Z,22.70
2023-12-01T15:02:28.213Z,21.20
2023-12-01T15:04:55.222Z,22.80
2023-12-01T15:07:22.228Z,24.10
2023-12-01T15:09:48.786Z,19.10
2023-12-01T15:12:15.777Z,25.40
2023-12-01T15:14:42.418Z,25.40
2023-12-01T15:17:09.372Z,21.40
2023-12-01T15:19:36.294Z,22.60
2023-12-01T15:22:04.659Z,24.00
2023-12-01T15:24:31.796Z,21.70
2023-12-01T15:26:59.389Z,21.50
2023-12-01T15:29:26.072Z,24.80
2023-12-01T15:31:52.664Z,26.50
2023-12-01T15:34:19.252Z,26.20
2023-12-01T15:36:47.063Z,24.60
2023-12-01T15:39:14.180Z,24.00
2023-12-01T15:41:40.965Z,22.40
2023-12-01T15:44:07.508Z,21.50
2023-12-01T15:46:34.896Z,22.90
2023-12-01T15:49:01.963Z,22.70
2023-12-01T15:51:29.658Z,23.30
2023-12-01T15:53:56.576Z,20.30
2023-12-01T15:56:23.191Z,25.10
2023-12-01T15:58:49.758Z,24.90
2023-12-01T16:01:16.404Z,25.30
2023-12-01T16:03:43.747Z,25.90
2023-12-01T16:06:10.684Z,25.80
2023-12-01T16:08:37.270Z,26.80
2023-12-01T16:11:04.902Z,26.10
2023-12-01T16:13:32.130Z,23.00
2023-12-01T16:15:58.583Z,24.70
2023-12-01T16:18:25.692Z,24.20
2023-12-01T16:20:52.657Z,27.40
2023-12-01T16:23:20.098Z,25.80
2023-12-01T16:25:47.795Z,27.30
2023-12-01T16:28:14.316Z,25.50
2023-12-01T16:30:40.932Z,28.20
2023-12-01T16:33:07.935Z,26.50
2023-12-01T16:35:34.894Z,25.50
2023-12-01T16:38:04.224Z,25.90
2023-12-01T16:40:30.737Z,25.60
2023-12-01T16:42:57.461Z,26.20
2023-12-01T16:45:25.037Z,26.40
2023-12-01T16:47:51.839Z,25.50
2023-12-01T16:50:21.198Z,26.10
2023-12-01T16:52:51.695Z,27.80
2023-12-01T16:55:18.241Z,26.30
2023-12-01T16:57:48.062Z,28.30
2023-12-01T17:00:18.349Z,26.50
2023-12-01T17:02:45.803Z,27.00
2023-12-01T17:05:12.535Z,25.70
2023-12-01T17:07:41.533Z,30.60
2023-12-01T17:10:08.997Z,32.10
2023-12-01T17:12:35.430Z,34.80
2023-12-01T17:15:04.288Z,32.00
2023-12-01T17:17:31.055Z,27.70
2023-12-01T17:19:58.007Z,26.70
2023-12-01T17:22:24.558Z,25.60
2023-12-01T17:24:51.000Z,24.70
2023-12-01T17:27:17.559Z,27.00
2023-12-01T17:29:44.094Z,23.50
2023-12-01T17:32:10.890Z,27.80
2023-12-01T17:34:37.894Z,26.10
2023-12-01T17:37:05.435Z,22.70
2023-12-01T17:39:32.074Z,22.80
2023-12-01T17:42:00.278Z,23.70
2023-12-01T17:44:37.130Z,24.20
2023-12-01T17:47:08.988Z,25.80
2023-12-01T17:49:35.615Z,23.80
2023-12-01T17:52:02.781Z,24.30
2023-12-01T17:54:30.084Z,24.00
2023-12-01T17:56:57.024Z,25.10
2023-12-01T17:59:25.317Z,27.50
2023-12-01T18:01:52.463Z,24.90
2023-12-01T18:04:19.075Z,28.60
2023-12-01T18:06:47.888Z,26.60
2023-12-01T18:09:14.318Z,24.50
2023-12-01T18:11:41.765Z,24.00
2023-12-01T18:14:08.428Z,26.40
2023-12-01T18:16:38.570Z,21.90
2023-12-01T18:19:05.657Z,25.10
2023-12-01T18:21:32.856Z,25.00
2023-12-01T18:23:59.796Z,25.60
2023-12-01T18:26:26.916Z,26.40
2023-12-01T18:28:56.675Z,26.90
2023-12-01T18:31:23.121Z,27.70
2023-12-01T18:33:49.793Z,27.90
2023-12-01T18:36:16.449Z,27.80
2023-12-01T18:38:46.125Z,28.30
2023-12-01T18:41:13.040Z,30.80
2023-12-01T18:43:39.871Z,26.80
2023-12-01T18:46:07.073Z,29.20
2023-12-01T18:48:38.106Z,29.40
2023-12-01T18:51:08.460Z,33.00
2023-12-01T18:53:35.070Z,30.50
2023-12-01T18:56:01.635Z,31.10
2023-12-01T18:58:28.236Z,33.90
2023-12-01T19:00:54.788Z,31.20
2023-12-01T19:03:24.983Z,35.80
2023-12-01T19:05:51.946Z,32.90
2023-12-01T19:08:18.588Z,29.60
2023-12-01T19:10:45.879Z,35.20
2023-12-01T19:13:12.843Z,28.90
2023-12-01T19:15:39.697Z,33.50
2023-12-01T19:18:08.688Z,33.70
2023-12-01T19:20:35.442Z,36.90
2023-12-01T19:23:05.007Z,34.20
2023-12-01T19:25:31.828Z,34.60
2023-12-01T19:27:58.624Z,38.00
2023-12-01T19:30:25.537Z,36.70
2023-12-01T19:32:52.253Z,40.20
2023-12-01T19:35:19.090Z,38.10
2023-12-01T19:37:45.690Z,38.90
2023-12-01T19:40:12.518Z,39.60
2023-12-01T19:42:39.570Z,41.20
2023-12-01T19:45:07.294Z,40.30
2023-12-01T19:47:33.953Z,34.60
2023-12-01T19:50:01.576Z,45.10
2023-12-01T19:52:29.778Z,39.40
2023-12-01T19:54:56.745Z,42.20
2023-12-01T19:57:26.274Z,40.30
2023-12-01T19:59:53.404Z,43.80
2023-12-01T20:02:20.407Z,47.80
2023-12-01T20:04:47.152Z,46.00
2023-12-01T20:07:15.643Z,39.00
2023-12-01T20:09:42.574Z,41.60
2023-12-01T20:12:09.562Z,43.60
2023-12-01T20:14:36.045Z,40.10
2023-12-01T20:17:04.209Z,39.40
2023-12-01T20:19:30.944Z,38.30
2023-12-01T20:21:59.998Z,42.00
2023-12-01T20:24:26.630Z,39.30
2023-12-01T20:26:53.716Z,40.40
2023-12-01T20:29:21.922Z,37.10
2023-12-01T20:31:48.363Z,39.80
2023-12-01T20:34:14.907Z,40.20
2023-12-01T20:36:43.252Z,43.70
2023-12-01T20:39:10.065Z,41.40
2023-12-01T20:41:39.014Z,44.80
2023-12-01T20:44:05.624Z,36.80
2023-12-01T20:46:32.189Z,36.50
2023-12-01T20:49:02.351Z,37.40
2023-12-01T20:51:29.193Z,38.40
2023-12-01T20:53:56.863Z,36.60
2023-12-01T20:56:24.116Z,41.10
2023-12-01T20:58:51.077Z,39.40
2023-12-01T21:01:19.147Z,38.50
2023-12-01T21:03:48.024Z,37.90
2023-12-01T21:06:15.747Z,38.50
2023-12-01T21:08:42.211Z,41.20
2023-12-01T21:11:09.005Z,37.60
2023-12-01T21:13:35.632Z,38.50
2023-12-01T21:16:03.596Z,38.70
2023-12-01T21:18:30.455Z,37.90
2023-12-01T21:20:57.030Z,38.00
2023-12-01T21:23:24.511Z,42.30
2023-12-01T21:26:12.001Z,34.70
2023-12-01T21:28:39.066Z,35.30
2023-12-01T21:31:06.782Z,34.00
2023-12-01T21:33:36.267Z,37.00
2023-12-01T21:36:15.061Z,39.90
2023-12-01T21:38:46.889Z,34.60
2023-12-01T21:41:21.342Z,34.70
2023-12-01T21:43:47.975Z,37.90
2023-12-01T21:46:14.591Z,36.10
2023-12-01T21:48:43.874Z,41.60
2023-12-01T21:51:10.724Z,39.70
2023-12-01T21:53:37.820Z,36.50
2023-12-01T21:56:04.647Z,36.90
2023-12-01T21:58:31.065Z,37.60
2023-12-01T22:00:58.171Z,35.60
2023-12-01T22:03:25.459Z,39.80
2023-12-01T22:05:52.888Z,40.30
2023-12-01T22:08:19.426Z,36.60
2023-12-01T22:10:45.940Z,40.60
2023-12-01T22:13:12.490Z,40.10
2023-12-01T22:15:41.070Z,41.20
2023-12-01T22:18:08.453Z,39.70
2023-12-01T22:20:35.871Z,39.00
2023-12-01T22:23:07.943Z,35.90
2023-12-01T22:25:34.848Z,35.10
2023-12-01T22:28:01.580Z,35.70
2023-12-01T22:30:30.370Z,38.80
2023-12-01T22:32:57.122Z,40.50
2023-12-01T22:35:23.772Z,39.60
2023-12-01T22:37:50.613Z,34.90
2023-12-01T22:40:17.904Z,35.50
2023-12-01T22:42:44.746Z,41.30
2023-12-01T22:45:11.286Z,42.60
2023-12-01T22:47:37.794Z,35.60
2023-12-01T22:50:04.629Z,42.20
2023-12-01T22:52:31.636Z,39.50
2023-12-01T22:54:58.114Z,36.60
2023-12-01T22:57:24.745Z,40.20
2023-12-01T22:59:53.446Z,38.00
2023-12-01T23:02:20.098Z,36.30
2023-12-01T23:04:47.028Z,40.40
2023-12-01T23:07:38.203Z,37.30
2023-12-01T23:10:34.787Z,42.00
2023-12-01T23:13:04.701Z,39.50
2023-12-01T23:15:31.162Z,33.60
2023-12-01T23:17:59.502Z,37.10
2023-12-01T23:20:27.713Z,45.10
2023-12-01T23:22:55.169Z,38.90
2023-12-01T23:25:21.752Z,40.90
2023-12-01T23:27:48.320Z,43.90
2023-12-01T23:30:15.136Z,41.60
2023-12-01T23:32:41.656Z,36.10
2023-12-01T23:35:08.357Z,37.80
2023-12-01T23:37:35.322Z,37.20
2023-12-01T23:40:03.925Z,39.90
2023-12-01T23:42:31.197Z,38.10
2023-12-01T23:44:58.338Z,40.40
2023-12-01T23:47:25.036Z,35.90
2023-12-01T23:49:51.550Z,36.10
2023-12-01T23:52:18.198Z,39.50
2023-12-01T23:54:44.678Z,40.90
2023-12-01T23:57:13.721Z,38.20
2023-12-01T23:59:40.296Z,37.60
